createdAt,value
2017-06-14T00:00:27.935Z,8.28
2017-06-14T00:01:27.898Z,8.30
2017-06-14T00:02:27.924Z,8.28
2017-06-14T00:03:27.940Z,8.28
2017-06-14T00:04:27.944Z,8.30
2017-06-14T00:05:27.959Z,8.28
2017-06-14T00:06:27.931Z,8.30
2017-06-14T00:07:27.934Z,8.31
2017-06-14T00:08:27.927Z,8.30
2017-06-14T00:09:27.935Z,8.27
2017-06-14T00:10:27.923Z,8.24
2017-06-14T00:11:27.850Z,8.24
2017-06-14T00:12:27.945Z,8.22
2017-06-14T00:13:27.919Z,8.19
2017-06-14T00:14:27.923Z,8.17
2017-06-14T00:15:27.921Z,8.19
2017-06-14T00:16:27.922Z,8.22
2017-06-14T00:17:27.924Z,8.20
2017-06-14T00:18:27.923Z,8.20
2017-06-14T00:19:27.925Z,8.20
2017-06-14T00:20:27.926Z,8.17
2017-06-14T00:21:27.926Z,8.15
2017-06-14T00:22:27.926Z,8.12
2017-06-14T00:23:27.997Z,8.09
2017-06-14T00:24:27.944Z,8.08
2017-06-14T00:25:27.951Z,8.05
2017-06-14T00:26:27.855Z,8.04
2017-06-14T00:27:27.952Z,8.02
2017-06-14T00:28:27.865Z,7.99
2017-06-14T00:29:27.862Z,8.05
2017-06-14T00:30:27.863Z,8.11
2017-06-14T00:31:27.954Z,8.17
2017-06-14T00:32:27.955Z,8.17
2017-06-14T00:33:27.870Z,8.15
2017-06-14T00:34:27.863Z,8.13
2017-06-14T00:35:27.855Z,8.13
2017-06-14T00:36:27.955Z,8.12
2017-06-14T00:37:27.866Z,8.12
2017-06-14T00:38:27.874Z,8.06
2017-06-14T00:39:27.951Z,8.04
2017-06-14T00:40:27.953Z,7.99
2017-06-14T00:41:27.867Z,7.98
2017-06-14T00:42:27.963Z,7.95
2017-06-14T00:43:27.952Z,7.93
2017-06-14T00:44:27.942Z,7.92
2017-06-14T00:45:28.049Z,7.90
2017-06-14T00:46:27.940Z,7.89
2017-06-14T00:47:27.951Z,7.89
2017-06-14T00:48:27.941Z,7.86
2017-06-14T00:49:27.942Z,7.85
2017-06-14T00:50:27.943Z,7.85
2017-06-14T00:51:27.942Z,7.82
2017-06-14T00:52:27.945Z,7.79
2017-06-14T00:53:27.942Z,7.75
2017-06-14T00:54:27.974Z,7.72
2017-06-14T00:55:27.899Z,7.71
2017-06-14T00:56:27.958Z,7.68
2017-06-14T00:57:27.969Z,7.71
2017-06-14T00:58:27.960Z,7.74
2017-06-14T00:59:27.965Z,7.74
2017-06-14T01:00:27.963Z,7.78
2017-06-14T01:01:27.878Z,7.78
2017-06-14T01:02:27.971Z,7.75
2017-06-14T01:03:27.969Z,7.78
2017-06-14T01:04:27.949Z,7.76
2017-06-14T01:05:27.949Z,7.75
2017-06-14T01:06:27.951Z,7.72
2017-06-14T01:07:27.951Z,7.71
2017-06-14T01:08:27.952Z,7.67
2017-06-14T01:09:27.952Z,7.65
2017-06-14T01:10:27.951Z,7.60
2017-06-14T01:11:27.955Z,7.64
2017-06-14T01:12:27.953Z,7.60
2017-06-14T01:13:27.951Z,7.59
2017-06-14T01:14:27.881Z,7.65
2017-06-14T01:15:27.973Z,7.64
2017-06-14T01:16:27.940Z,7.60
2017-06-14T01:17:27.969Z,7.63
2017-06-14T01:18:27.972Z,7.71
2017-06-14T01:19:27.890Z,7.70
2017-06-14T01:20:27.895Z,7.70
2017-06-14T01:21:27.973Z,7.70
2017-06-14T01:22:27.988Z,7.70
2017-06-14T01:23:27.963Z,7.68
2017-06-14T01:24:27.978Z,7.64
2017-06-14T01:25:27.893Z,7.63
2017-06-14T01:26:27.977Z,7.59
2017-06-14T01:27:27.986Z,7.55
2017-06-14T01:28:27.942Z,7.52
2017-06-14T01:29:27.986Z,7.48
2017-06-14T01:30:27.972Z,7.44
2017-06-14T01:31:27.901Z,7.42
2017-06-14T01:32:27.984Z,7.40
2017-06-14T01:33:27.943Z,7.37
2017-06-14T01:34:27.885Z,7.37
2017-06-14T01:35:27.891Z,7.37
2017-06-14T01:36:27.890Z,7.37
2017-06-14T01:37:27.931Z,7.37
2017-06-14T01:38:27.892Z,7.37
2017-06-14T01:39:27.893Z,7.35
2017-06-14T01:40:27.892Z,7.35
2017-06-14T01:41:27.892Z,7.35
2017-06-14T01:42:27.897Z,7.34
2017-06-14T01:43:27.891Z,7.35
2017-06-14T01:44:27.987Z,7.35
2017-06-14T01:45:27.989Z,7.34
2017-06-14T01:46:28.000Z,7.29
2017-06-14T01:47:27.995Z,7.27
2017-06-14T01:48:27.986Z,7.26
2017-06-14T01:49:27.987Z,7.20
2017-06-14T01:50:27.980Z,7.19
2017-06-14T01:51:27.985Z,7.16
2017-06-14T01:52:27.984Z,7.13
2017-06-14T01:53:27.977Z,7.13
2017-06-14T01:54:27.985Z,7.15
2017-06-14T01:55:27.981Z,7.09
2017-06-14T01:56:27.910Z,7.13
2017-06-14T01:57:27.998Z,7.13
2017-06-14T01:58:27.910Z,7.12
2017-06-14T01:59:27.983Z,7.16
2017-06-14T02:00:28.001Z,7.19
2017-06-14T02:01:27.957Z,7.19
2017-06-14T02:02:27.908Z,7.23
2017-06-14T02:03:27.910Z,7.20
2017-06-14T02:04:27.898Z,7.12
2017-06-14T02:05:27.903Z,7.09
2017-06-14T02:06:27.905Z,7.04
2017-06-14T02:07:27.904Z,7.04
2017-06-14T02:08:27.948Z,7.01
2017-06-14T02:09:27.955Z,7.00
2017-06-14T02:10:27.950Z,6.98
2017-06-14T02:11:27.934Z,6.93
2017-06-14T02:12:27.939Z,6.91
2017-06-14T02:13:27.909Z,6.89
2017-06-14T02:14:27.998Z,6.87
2017-06-14T02:15:28.005Z,6.86
2017-06-14T02:16:27.967Z,6.89
2017-06-14T02:17:28.000Z,6.93
2017-06-14T02:18:27.973Z,6.95
2017-06-14T02:19:27.991Z,6.95
2017-06-14T02:20:27.975Z,6.94
2017-06-14T02:21:27.995Z,6.94
2017-06-14T02:22:28.017Z,6.91
2017-06-14T02:23:28.016Z,6.89
2017-06-14T02:24:28.012Z,6.89
2017-06-14T02:25:28.004Z,6.89
2017-06-14T02:26:27.925Z,6.89
2017-06-14T02:27:28.005Z,6.90
2017-06-14T02:28:27.994Z,6.90
2017-06-14T02:29:28.020Z,6.87
2017-06-14T02:30:27.940Z,6.87
2017-06-14T02:31:27.999Z,6.87
2017-06-14T02:32:27.981Z,6.89
2017-06-14T02:33:27.993Z,6.90
2017-06-14T02:34:28.002Z,6.87
2017-06-14T02:35:28.085Z,6.86
2017-06-14T02:36:28.000Z,6.82
2017-06-14T02:37:27.998Z,6.79
2017-06-14T02:38:27.974Z,6.75
2017-06-14T02:39:28.003Z,6.72
2017-06-14T02:40:27.996Z,6.67
2017-06-14T02:41:27.999Z,6.64
2017-06-14T02:42:28.000Z,6.61
2017-06-14T02:43:28.005Z,6.59
2017-06-14T02:44:27.940Z,6.57
2017-06-14T02:45:28.019Z,6.57
2017-06-14T02:46:28.020Z,6.60
2017-06-14T02:47:28.028Z,6.60
2017-06-14T02:48:28.032Z,6.60
2017-06-14T02:49:28.020Z,6.60
2017-06-14T02:50:27.942Z,6.60
2017-06-14T02:51:27.944Z,6.57
2017-06-14T02:52:27.939Z,6.55
2017-06-14T02:53:27.947Z,6.56
2017-06-14T02:54:28.009Z,6.52
2017-06-14T02:55:28.009Z,6.51
2017-06-14T02:56:28.000Z,6.49
2017-06-14T02:57:28.010Z,6.49
2017-06-14T02:58:28.011Z,6.51
2017-06-14T02:59:28.025Z,6.49
2017-06-14T03:00:28.025Z,6.51
2017-06-14T03:01:28.014Z,6.49
2017-06-14T03:02:28.025Z,6.47
2017-06-14T03:03:28.024Z,6.44
2017-06-14T03:04:28.015Z,6.41
2017-06-14T03:05:28.015Z,6.43
2017-06-14T03:06:28.010Z,6.43
2017-06-14T03:07:28.015Z,6.41
2017-06-14T03:08:28.014Z,6.41
2017-06-14T03:09:27.930Z,6.38
2017-06-14T03:10:28.049Z,6.36
2017-06-14T03:11:28.032Z,6.38
2017-06-14T03:12:28.018Z,6.41
2017-06-14T03:13:28.020Z,6.43
2017-06-14T03:14:28.024Z,6.44
2017-06-14T03:15:28.042Z,6.47
2017-06-14T03:16:28.040Z,6.56
2017-06-14T03:17:28.015Z,6.56
2017-06-14T03:18:27.953Z,6.56
2017-06-14T03:19:28.100Z,6.55
2017-06-14T03:20:28.097Z,6.56
2017-06-14T03:21:28.036Z,6.56
2017-06-14T03:22:27.953Z,6.56
2017-06-14T03:23:28.039Z,6.52
2017-06-14T03:24:27.997Z,6.51
2017-06-14T03:25:27.955Z,6.49
2017-06-14T03:26:28.017Z,6.51
2017-06-14T03:27:28.040Z,6.51
2017-06-14T03:28:28.047Z,6.51
2017-06-14T03:29:27.958Z,6.51
2017-06-14T03:30:28.044Z,6.55
2017-06-14T03:31:27.999Z,6.55
2017-06-14T03:32:28.045Z,6.57
2017-06-14T03:33:27.964Z,6.59
2017-06-14T03:34:27.960Z,6.60
2017-06-14T03:35:27.962Z,6.59
2017-06-14T03:36:28.048Z,6.57
2017-06-14T03:37:28.007Z,6.59
2017-06-14T03:38:28.027Z,6.59
2017-06-14T03:39:27.991Z,6.59
2017-06-14T03:40:28.050Z,6.64
2017-06-14T03:41:27.960Z,6.66
2017-06-14T03:42:27.957Z,6.64
2017-06-14T03:43:27.962Z,6.68
2017-06-14T03:44:28.053Z,6.67
2017-06-14T03:45:27.967Z,6.67
2017-06-14T03:46:27.962Z,6.67
2017-06-14T03:47:28.014Z,6.70
2017-06-14T03:48:27.966Z,6.72
2017-06-14T03:49:27.963Z,6.77
2017-06-14T03:50:28.019Z,6.77
2017-06-14T03:51:28.070Z,6.78
2017-06-14T03:52:28.057Z,6.82
2017-06-14T03:53:28.035Z,6.84
2017-06-14T03:54:28.058Z,6.89
2017-06-14T03:55:28.053Z,6.89
2017-06-14T03:56:28.071Z,6.90
2017-06-14T03:57:28.063Z,6.90
2017-06-14T03:58:27.972Z,6.93
2017-06-14T03:59:27.974Z,6.94
2017-06-14T04:00:28.059Z,7.00
2017-06-14T04:01:27.979Z,7.04
2017-06-14T04:02:28.055Z,7.11
2017-06-14T04:03:28.071Z,7.19
2017-06-14T04:04:28.066Z,7.29
2017-06-14T04:05:28.022Z,7.38
2017-06-14T04:06:28.068Z,7.41
2017-06-14T04:07:28.063Z,7.45
2017-06-14T04:08:28.061Z,7.48
2017-06-14T04:09:27.977Z,7.52
2017-06-14T04:10:28.066Z,7.53
2017-06-14T04:11:27.976Z,7.58
2017-06-14T04:12:27.981Z,7.59
2017-06-14T04:13:28.069Z,7.59
2017-06-14T04:14:28.071Z,7.63
2017-06-14T04:15:28.050Z,7.64
2017-06-14T04:16:28.061Z,7.67
2017-06-14T04:17:28.053Z,7.70
2017-06-14T04:18:28.054Z,7.72
2017-06-14T04:19:28.069Z,7.74
2017-06-14T04:20:28.051Z,7.75
2017-06-14T04:21:28.051Z,7.76
2017-06-14T04:22:28.058Z,7.78
2017-06-14T04:23:28.056Z,7.76
2017-06-14T04:24:28.070Z,7.78
2017-06-14T04:25:27.968Z,7.78
2017-06-14T04:26:27.964Z,7.81
2017-06-14T04:27:28.061Z,7.83
2017-06-14T04:28:28.063Z,7.86
2017-06-14T04:29:28.020Z,7.89
2017-06-14T04:30:28.082Z,7.89
2017-06-14T04:31:27.981Z,7.95
2017-06-14T04:32:28.086Z,7.95
2017-06-14T04:33:28.032Z,7.99
2017-06-14T04:34:27.971Z,8.04
2017-06-14T04:35:27.993Z,8.08
2017-06-14T04:36:27.991Z,8.13
2017-06-14T04:37:28.080Z,8.16
2017-06-14T04:38:28.072Z,8.19
2017-06-14T04:39:27.990Z,8.23
2017-06-14T04:40:28.000Z,8.27
2017-06-14T04:41:27.991Z,8.34
2017-06-14T04:42:27.996Z,8.38
2017-06-14T04:43:28.082Z,8.43
2017-06-14T04:44:28.084Z,8.46
2017-06-14T04:45:28.091Z,8.50
2017-06-14T04:46:28.090Z,8.54
2017-06-14T04:47:28.084Z,8.58
2017-06-14T04:48:28.087Z,8.61
2017-06-14T04:49:28.094Z,8.67
2017-06-14T04:50:27.999Z,8.72
2017-06-14T04:51:28.093Z,8.83
2017-06-14T04:52:28.088Z,8.87
2017-06-14T04:53:28.080Z,8.90
2017-06-14T04:54:28.009Z,8.90
2017-06-14T04:55:28.066Z,8.93
2017-06-14T04:56:28.071Z,8.94
2017-06-14T04:57:28.071Z,8.97
2017-06-14T04:58:28.068Z,9.01
2017-06-14T04:59:28.071Z,9.04
2017-06-14T05:00:28.070Z,9.05
2017-06-14T05:01:28.074Z,9.07
2017-06-14T05:02:28.071Z,9.08
2017-06-14T05:03:28.072Z,9.13
2017-06-14T05:04:28.075Z,9.15
2017-06-14T05:05:28.073Z,9.18
2017-06-14T05:06:28.075Z,9.23
2017-06-14T05:07:28.073Z,9.23
2017-06-14T05:08:28.076Z,9.25
2017-06-14T05:09:28.181Z,9.27
2017-06-14T05:10:28.078Z,9.30
2017-06-14T05:11:28.074Z,9.32
2017-06-14T05:12:28.081Z,9.38
2017-06-14T05:13:28.199Z,9.43
2017-06-14T05:14:28.200Z,9.49
2017-06-14T05:15:28.022Z,9.54
2017-06-14T05:16:28.206Z,9.58
2017-06-14T05:17:28.064Z,9.65
2017-06-14T05:18:28.102Z,9.69
2017-06-14T05:19:28.104Z,9.71
2017-06-14T05:20:28.110Z,9.72
2017-06-14T05:21:28.023Z,9.73
2017-06-14T05:22:28.111Z,9.73
2017-06-14T05:23:28.112Z,9.78
2017-06-14T05:24:28.105Z,9.79
2017-06-14T05:25:28.088Z,9.83
2017-06-14T05:26:28.003Z,9.84
2017-06-14T05:27:28.087Z,9.89
2017-06-14T05:28:28.088Z,9.98
2017-06-14T05:29:28.091Z,10.05
2017-06-14T05:30:28.089Z,10.09
2017-06-14T05:31:28.089Z,10.16
2017-06-14T05:32:28.094Z,10.21
2017-06-14T05:33:28.092Z,10.27
2017-06-14T05:34:28.174Z,10.36
2017-06-14T05:35:28.092Z,10.39
2017-06-14T05:36:28.091Z,10.39
2017-06-14T05:37:28.090Z,10.43
2017-06-14T05:38:28.007Z,10.46
2017-06-14T05:39:28.095Z,10.47
2017-06-14T05:40:28.093Z,10.50
2017-06-14T05:41:28.090Z,10.56
2017-06-14T05:42:28.098Z,10.58
2017-06-14T05:43:28.093Z,10.61
2017-06-14T05:44:28.098Z,10.65
2017-06-14T05:45:28.118Z,10.75
2017-06-14T05:46:28.124Z,10.91
2017-06-14T05:47:28.099Z,11.09
2017-06-14T05:48:28.077Z,11.29
2017-06-14T05:49:28.123Z,11.40
2017-06-14T05:50:28.031Z,11.57
2017-06-14T05:51:28.031Z,11.75
2017-06-14T05:52:28.101Z,11.92
2017-06-14T05:53:28.032Z,12.10
2017-06-14T05:54:28.132Z,12.32
2017-06-14T05:55:28.120Z,12.44
2017-06-14T05:56:28.118Z,12.55
2017-06-14T05:57:28.101Z,12.69
2017-06-14T05:58:28.085Z,12.83
2017-06-14T05:59:28.122Z,12.96
2017-06-14T06:00:28.125Z,13.03
2017-06-14T06:01:28.128Z,13.10
2017-06-14T06:02:28.126Z,13.23
2017-06-14T06:03:28.039Z,13.17
2017-06-14T06:04:28.131Z,13.28
2017-06-14T06:05:28.064Z,13.40
2017-06-14T06:06:28.038Z,13.61
2017-06-14T06:07:28.127Z,13.49
2017-06-14T06:08:28.049Z,13.61
2017-06-14T06:09:28.046Z,13.65
2017-06-14T06:10:28.112Z,13.77
2017-06-14T06:11:28.107Z,13.86
2017-06-14T06:12:28.134Z,14.02
2017-06-14T06:13:28.131Z,14.02
2017-06-14T06:14:28.113Z,13.91
2017-06-14T06:15:28.044Z,13.95
2017-06-14T06:16:28.038Z,14.10
2017-06-14T06:17:28.040Z,14.18
2017-06-14T06:18:28.039Z,14.35
2017-06-14T06:19:28.124Z,14.49
2017-06-14T06:20:28.026Z,14.66
2017-06-14T06:21:28.048Z,14.82
2017-06-14T06:22:28.088Z,14.79
2017-06-14T06:23:28.025Z,14.89
2017-06-14T06:24:28.038Z,15.02
2017-06-14T06:25:28.109Z,15.15
2017-06-14T06:26:28.109Z,15.19
2017-06-14T06:27:28.110Z,15.32
2017-06-14T06:28:28.111Z,15.42
2017-06-14T06:29:28.109Z,15.53
2017-06-14T06:30:28.112Z,15.59
2017-06-14T06:31:28.112Z,15.57
2017-06-14T06:32:28.216Z,15.73
2017-06-14T06:33:28.114Z,15.87
2017-06-14T06:34:28.112Z,15.54
2017-06-14T06:35:28.115Z,15.57
2017-06-14T06:36:28.145Z,15.64
2017-06-14T06:37:28.059Z,15.83
2017-06-14T06:38:28.069Z,15.93
2017-06-14T06:39:28.064Z,15.90
2017-06-14T06:40:28.064Z,15.95
2017-06-14T06:41:28.072Z,16.14
2017-06-14T06:42:28.066Z,16.33
2017-06-14T06:43:28.060Z,16.43
2017-06-14T06:44:28.156Z,16.58
2017-06-14T06:45:28.159Z,16.77
2017-06-14T06:46:28.102Z,16.95
2017-06-14T06:47:28.156Z,17.12
2017-06-14T06:48:28.095Z,17.20
2017-06-14T06:49:28.130Z,17.20
2017-06-14T06:50:28.112Z,17.26
2017-06-14T06:51:28.117Z,17.39
2017-06-14T06:52:28.153Z,17.55
2017-06-14T06:53:28.076Z,17.58
2017-06-14T06:54:28.071Z,17.71
2017-06-14T06:55:28.139Z,17.72
2017-06-14T06:56:28.072Z,17.68
2017-06-14T06:57:28.151Z,17.79
2017-06-14T06:58:28.167Z,17.99
2017-06-14T06:59:28.071Z,18.06
2017-06-14T07:00:28.119Z,18.00
2017-06-14T07:01:28.151Z,17.92
2017-06-14T07:02:28.152Z,17.95
2017-06-14T07:03:28.067Z,17.87
2017-06-14T07:04:28.070Z,17.84
2017-06-14T07:05:28.073Z,18.03
2017-06-14T07:06:28.118Z,18.20
2017-06-14T07:07:28.138Z,18.36
2017-06-14T07:08:28.160Z,18.48
2017-06-14T07:09:28.165Z,18.38
2017-06-14T07:10:28.170Z,18.27
2017-06-14T07:11:28.127Z,18.38
2017-06-14T07:12:28.169Z,18.35
2017-06-14T07:13:28.124Z,18.54
2017-06-14T07:14:28.145Z,18.77
2017-06-14T07:15:28.172Z,18.90
2017-06-14T07:16:28.166Z,19.20
2017-06-14T07:17:28.082Z,19.49
2017-06-14T07:18:28.162Z,19.50
2017-06-14T07:19:28.087Z,19.44
2017-06-14T07:20:28.133Z,19.32
2017-06-14T07:21:28.174Z,19.29
2017-06-14T07:22:28.084Z,19.24
2017-06-14T07:23:28.151Z,19.17
2017-06-14T07:24:28.136Z,19.08
2017-06-14T07:25:28.096Z,18.98
2017-06-14T07:26:28.087Z,18.69
2017-06-14T07:27:28.175Z,18.51
2017-06-14T07:28:28.086Z,18.62
2017-06-14T07:29:28.134Z,18.69
2017-06-14T07:30:28.169Z,18.83
2017-06-14T07:31:28.084Z,19.05
2017-06-14T07:32:28.169Z,19.19
2017-06-14T07:33:28.192Z,19.17
2017-06-14T07:34:28.177Z,19.15
2017-06-14T07:35:28.180Z,19.19
2017-06-14T07:36:28.181Z,19.13
2017-06-14T07:37:28.097Z,19.13
2017-06-14T07:38:28.178Z,19.25
2017-06-14T07:39:28.090Z,19.43
2017-06-14T07:40:28.140Z,19.43
2017-06-14T07:41:28.174Z,19.25
2017-06-14T07:42:28.287Z,19.15
2017-06-14T07:43:28.186Z,19.33
2017-06-14T07:44:28.095Z,19.40
2017-06-14T07:45:28.176Z,19.43
2017-06-14T07:46:28.097Z,19.47
2017-06-14T07:47:28.179Z,19.39
2017-06-14T07:48:28.183Z,19.38
2017-06-14T07:49:28.193Z,19.24
2017-06-14T07:50:28.186Z,19.32
2017-06-14T07:51:28.106Z,19.57
2017-06-14T07:52:28.198Z,19.72
2017-06-14T07:53:28.177Z,19.91
2017-06-14T07:54:28.289Z,19.92
2017-06-14T07:55:28.191Z,19.66
2017-06-14T07:56:28.108Z,19.55
2017-06-14T07:57:28.191Z,19.29
2017-06-14T07:58:28.097Z,19.21
2017-06-14T07:59:28.193Z,19.57
2017-06-14T08:00:28.249Z,19.90
2017-06-14T08:01:28.188Z,20.02
2017-06-14T08:02:28.157Z,20.13
2017-06-14T08:03:28.171Z,20.31
2017-06-14T08:04:28.193Z,20.31
2017-06-14T08:05:28.188Z,20.53
2017-06-14T08:06:28.110Z,20.68
2017-06-14T08:07:28.157Z,20.87
2017-06-14T08:08:28.113Z,20.99
2017-06-14T08:09:28.196Z,20.99
2017-06-14T08:10:28.200Z,20.60
2017-06-14T08:11:28.174Z,20.42
2017-06-14T08:12:28.193Z,20.43
2017-06-14T08:13:28.176Z,20.77
2017-06-14T08:14:28.108Z,21.16
2017-06-14T08:15:28.117Z,21.35
2017-06-14T08:16:28.201Z,21.25
2017-06-14T08:17:28.111Z,20.66
2017-06-14T08:18:28.205Z,20.65
2017-06-14T08:19:28.207Z,20.54
2017-06-14T08:20:28.158Z,20.52
2017-06-14T08:21:28.191Z,20.49
2017-06-14T08:22:28.203Z,20.47
2017-06-14T08:23:28.176Z,20.21
2017-06-14T08:24:28.202Z,20.31
2017-06-14T08:25:28.198Z,20.56
2017-06-14T08:26:28.199Z,20.86
2017-06-14T08:27:28.180Z,20.93
2017-06-14T08:28:28.198Z,20.98
2017-06-14T08:29:28.241Z,21.36
2017-06-14T08:30:28.206Z,21.64
2017-06-14T08:31:28.158Z,21.89
2017-06-14T08:32:28.212Z,21.96
2017-06-14T08:33:28.171Z,22.12
2017-06-14T08:34:28.207Z,22.27
2017-06-14T08:35:28.202Z,22.21
2017-06-14T08:36:28.115Z,21.75
2017-06-14T08:37:28.114Z,21.40
2017-06-14T08:38:28.107Z,21.29
2017-06-14T08:39:28.136Z,21.21
2017-06-14T08:40:28.118Z,21.40
2017-06-14T08:41:28.110Z,21.80
2017-06-14T08:42:28.160Z,21.80
2017-06-14T08:43:28.172Z,21.73
2017-06-14T08:44:28.116Z,21.50
2017-06-14T08:45:28.102Z,21.04
2017-06-14T08:46:28.206Z,21.04
2017-06-14T08:47:28.130Z,21.10
2017-06-14T08:48:28.212Z,21.13
2017-06-14T08:49:28.216Z,20.79
2017-06-14T08:50:28.150Z,20.69
2017-06-14T08:51:28.137Z,20.80
2017-06-14T08:52:28.227Z,20.77
2017-06-14T08:53:28.220Z,20.57
2017-06-14T08:54:28.138Z,20.83
2017-06-14T08:55:28.226Z,21.13
2017-06-14T08:56:28.291Z,21.14
2017-06-14T08:57:28.191Z,21.16
2017-06-14T08:58:28.191Z,20.93
2017-06-14T08:59:28.192Z,20.82
2017-06-14T09:00:28.294Z,20.99
2017-06-14T09:01:28.195Z,21.09
2017-06-14T09:02:28.195Z,21.39
2017-06-14T09:03:28.193Z,21.75
2017-06-14T09:04:28.197Z,22.04
2017-06-14T09:05:28.197Z,22.30
2017-06-14T09:06:28.132Z,22.53
2017-06-14T09:07:28.209Z,22.79
2017-06-14T09:08:28.209Z,23.05
2017-06-14T09:09:28.209Z,23.26
2017-06-14T09:10:28.210Z,23.44
2017-06-14T09:11:28.210Z,23.57
2017-06-14T09:12:28.211Z,23.45
2017-06-14T09:13:28.210Z,23.44
2017-06-14T09:14:28.216Z,23.65
2017-06-14T09:15:28.211Z,23.85
2017-06-14T09:16:28.215Z,24.00
2017-06-14T09:17:28.211Z,23.78
2017-06-14T09:18:28.214Z,23.06
2017-06-14T09:19:28.214Z,22.43
2017-06-14T09:20:28.217Z,22.24
2017-06-14T09:21:28.213Z,22.34
2017-06-14T09:22:28.221Z,22.42
2017-06-14T09:23:28.215Z,22.32
2017-06-14T09:24:28.220Z,22.41
2017-06-14T09:25:28.217Z,22.34
2017-06-14T09:26:28.218Z,22.48
2017-06-14T09:27:28.218Z,22.56
2017-06-14T09:28:28.218Z,22.24
2017-06-14T09:29:28.220Z,22.08
2017-06-14T09:30:28.217Z,21.78
2017-06-14T09:31:28.221Z,21.80
2017-06-14T09:32:28.221Z,21.98
2017-06-14T09:33:28.222Z,22.10
2017-06-14T09:34:28.221Z,22.10
2017-06-14T09:35:28.224Z,21.91
2017-06-14T09:36:28.240Z,21.71
2017-06-14T09:37:28.154Z,21.62
2017-06-14T09:38:28.250Z,21.51
2017-06-14T09:39:28.160Z,21.40
2017-06-14T09:40:28.160Z,21.35
2017-06-14T09:41:28.161Z,21.36
2017-06-14T09:42:28.224Z,21.50
2017-06-14T09:43:28.250Z,21.47
2017-06-14T09:44:28.162Z,21.61
2017-06-14T09:45:28.222Z,21.65
2017-06-14T09:46:28.227Z,21.89
2017-06-14T09:47:28.229Z,22.12
2017-06-14T09:48:28.228Z,22.01
2017-06-14T09:49:28.231Z,22.35
2017-06-14T09:50:28.230Z,22.60
2017-06-14T09:51:28.232Z,22.79
2017-06-14T09:52:28.229Z,22.46
2017-06-14T09:53:28.235Z,22.43
2017-06-14T09:54:28.231Z,22.50
2017-06-14T09:55:28.234Z,22.42
2017-06-14T09:56:28.169Z,22.46
2017-06-14T09:57:28.255Z,22.52
2017-06-14T09:58:28.245Z,22.76
2017-06-14T09:59:28.169Z,23.02
2017-06-14T10:00:28.255Z,23.31
2017-06-14T10:01:28.213Z,23.51
2017-06-14T10:02:28.255Z,23.17
2017-06-14T10:03:28.253Z,22.94
2017-06-14T10:04:28.255Z,23.04
2017-06-14T10:05:28.258Z,22.93
2017-06-14T10:06:28.257Z,22.95
2017-06-14T10:07:28.172Z,22.91
2017-06-14T10:08:28.173Z,23.13
2017-06-14T10:09:28.180Z,23.30
2017-06-14T10:10:28.258Z,23.56
2017-06-14T10:11:28.260Z,23.72
2017-06-14T10:12:28.223Z,23.58
2017-06-14T10:13:28.179Z,23.60
2017-06-14T10:14:28.267Z,23.68
2017-06-14T10:15:28.269Z,23.74
2017-06-14T10:16:28.159Z,23.80
2017-06-14T10:17:28.242Z,24.04
2017-06-14T10:18:28.249Z,24.15
2017-06-14T10:19:28.249Z,24.12
2017-06-14T10:20:28.251Z,24.18
2017-06-14T10:21:28.246Z,24.04
2017-06-14T10:22:28.263Z,23.90
2017-06-14T10:23:28.249Z,23.60
2017-06-14T10:24:28.253Z,23.05
2017-06-14T10:25:28.247Z,22.53
2017-06-14T10:26:28.191Z,22.17
2017-06-14T10:27:28.191Z,22.27
2017-06-14T10:28:28.188Z,22.54
2017-06-14T10:29:28.183Z,22.88
2017-06-14T10:30:28.231Z,23.22
2017-06-14T10:31:28.195Z,23.20
2017-06-14T10:32:28.190Z,23.19
2017-06-14T10:33:28.186Z,23.41
2017-06-14T10:34:28.273Z,23.75
2017-06-14T10:35:28.191Z,24.00
2017-06-14T10:36:28.270Z,24.16
2017-06-14T10:37:28.254Z,24.23
2017-06-14T10:38:28.189Z,24.29
2017-06-14T10:39:28.194Z,24.45
2017-06-14T10:40:28.278Z,24.44
2017-06-14T10:41:28.278Z,23.80
2017-06-14T10:42:28.278Z,23.63
2017-06-14T10:43:28.279Z,23.65
2017-06-14T10:44:28.286Z,23.79
2017-06-14T10:45:28.274Z,23.98
2017-06-14T10:46:28.239Z,24.07
2017-06-14T10:47:28.276Z,23.98
2017-06-14T10:48:28.195Z,23.89
2017-06-14T10:49:28.281Z,23.98
2017-06-14T10:50:28.288Z,23.96
2017-06-14T10:51:28.283Z,23.64
2017-06-14T10:52:28.290Z,23.54
2017-06-14T10:53:28.195Z,23.49
2017-06-14T10:54:28.265Z,23.09
2017-06-14T10:55:28.203Z,22.76
2017-06-14T10:56:28.288Z,22.56
2017-06-14T10:57:28.277Z,22.87
2017-06-14T10:58:28.281Z,22.97
2017-06-14T10:59:28.231Z,23.04
2017-06-14T11:00:28.261Z,23.37
2017-06-14T11:01:28.288Z,23.67
2017-06-14T11:02:28.284Z,23.91
2017-06-14T11:03:28.290Z,24.27
2017-06-14T11:04:28.209Z,24.61
2017-06-14T11:05:28.342Z,24.49
2017-06-14T11:06:28.201Z,24.18
2017-06-14T11:07:28.207Z,24.16
2017-06-14T11:08:28.272Z,23.65
2017-06-14T11:09:28.274Z,23.91
2017-06-14T11:10:28.276Z,23.97
2017-06-14T11:11:28.280Z,24.22
2017-06-14T11:12:28.277Z,24.48
2017-06-14T11:13:28.276Z,24.83
2017-06-14T11:14:28.234Z,25.01
2017-06-14T11:15:28.276Z,24.75
2017-06-14T11:16:28.279Z,24.77
2017-06-14T11:17:28.279Z,24.71
2017-06-14T11:18:28.282Z,24.29
2017-06-14T11:19:28.277Z,24.25
2017-06-14T11:20:28.284Z,23.80
2017-06-14T11:21:28.369Z,24.04
2017-06-14T11:22:28.282Z,24.38
2017-06-14T11:23:28.281Z,24.77
2017-06-14T11:24:28.285Z,25.09
2017-06-14T11:25:28.281Z,25.17
2017-06-14T11:26:28.205Z,25.23
2017-06-14T11:27:28.309Z,25.22
2017-06-14T11:28:28.302Z,25.19
2017-06-14T11:30:28.307Z,25.24
2017-06-14T11:31:28.271Z,25.34
2017-06-14T11:32:28.356Z,25.35
2017-06-14T11:33:28.227Z,25.42
2017-06-14T11:34:28.263Z,25.66
2017-06-14T11:35:28.283Z,24.68
2017-06-14T11:36:28.304Z,24.22
2017-06-14T11:37:28.214Z,24.45
2017-06-14T11:38:28.288Z,24.08
2017-06-14T11:39:28.304Z,23.72
2017-06-14T11:40:28.268Z,24.08
2017-06-14T11:41:28.311Z,24.31
2017-06-14T11:42:28.229Z,24.64
2017-06-14T11:43:28.228Z,24.71
2017-06-14T11:44:28.316Z,24.56
2017-06-14T11:45:28.228Z,24.57
2017-06-14T11:46:28.315Z,24.91
2017-06-14T11:47:28.218Z,24.81
2017-06-14T11:48:28.318Z,24.63
2017-06-14T11:49:28.395Z,24.61
2017-06-14T11:50:28.316Z,24.79
2017-06-14T11:51:28.233Z,25.15
2017-06-14T11:52:28.235Z,25.31
2017-06-14T11:53:28.230Z,25.55
2017-06-14T11:54:28.276Z,25.57
2017-06-14T11:55:28.232Z,25.75
2017-06-14T11:56:28.311Z,25.99
2017-06-14T11:57:28.301Z,26.26
2017-06-14T11:58:28.301Z,26.11
2017-06-14T11:59:28.300Z,25.93
2017-06-14T12:00:28.300Z,25.91
2017-06-14T12:01:28.303Z,25.91
2017-06-14T12:02:28.301Z,25.89
2017-06-14T12:03:28.303Z,25.80
2017-06-14T12:04:28.303Z,25.95
2017-06-14T12:05:28.303Z,25.84
2017-06-14T12:06:28.219Z,25.81
2017-06-14T12:07:28.240Z,25.48
2017-06-14T12:08:28.241Z,25.37
2017-06-14T12:09:28.239Z,25.34
2017-06-14T12:10:28.327Z,25.49
2017-06-14T12:11:28.335Z,25.68
2017-06-14T12:12:28.239Z,25.82
2017-06-14T12:13:28.243Z,25.20
2017-06-14T12:14:28.252Z,24.82
2017-06-14T12:15:28.329Z,24.61
2017-06-14T12:16:28.286Z,24.33
2017-06-14T12:17:28.308Z,24.27
2017-06-14T12:18:28.318Z,24.44
2017-06-14T12:19:28.313Z,24.77
2017-06-14T12:20:28.316Z,25.02
2017-06-14T12:21:28.317Z,24.91
2017-06-14T12:22:28.418Z,24.93
2017-06-14T12:23:28.314Z,25.12
2017-06-14T12:24:28.316Z,25.24
2017-06-14T12:25:28.315Z,25.23
2017-06-14T12:26:28.321Z,25.12
2017-06-14T12:27:28.313Z,25.27
2017-06-14T12:28:28.259Z,25.26
2017-06-14T12:29:28.294Z,25.26
2017-06-14T12:30:28.259Z,24.95
2017-06-14T12:31:28.339Z,24.95
2017-06-14T12:32:28.345Z,25.38
2017-06-14T12:33:28.254Z,25.67
2017-06-14T12:34:28.259Z,25.68
2017-06-14T12:35:28.297Z,25.97
2017-06-14T12:36:28.254Z,26.15
2017-06-14T12:37:28.321Z,26.26
2017-06-14T12:38:28.319Z,26.13
2017-06-14T12:39:28.239Z,25.60
2017-06-14T12:40:28.324Z,25.42
2017-06-14T12:41:28.324Z,25.51
2017-06-14T12:42:28.324Z,25.48
2017-06-14T12:43:28.328Z,25.27
2017-06-14T12:44:28.323Z,25.24
2017-06-14T12:45:28.340Z,25.16
2017-06-14T12:46:28.327Z,25.23
2017-06-14T12:47:28.255Z,25.35
2017-06-14T12:48:28.346Z,25.00
2017-06-14T12:49:28.307Z,25.13
2017-06-14T12:50:28.349Z,25.29
2017-06-14T12:51:28.267Z,25.08
2017-06-14T12:52:28.349Z,24.85
2017-06-14T12:53:28.328Z,24.85
2017-06-14T12:54:28.265Z,24.97
2017-06-14T12:55:28.362Z,25.34
2017-06-14T12:56:28.272Z,25.38
2017-06-14T12:57:28.326Z,25.53
2017-06-14T12:58:28.344Z,25.56
2017-06-14T12:59:28.353Z,25.85
2017-06-14T13:00:28.326Z,25.74
2017-06-14T13:01:28.357Z,25.80
2017-06-14T13:02:28.271Z,25.75
2017-06-14T13:03:28.346Z,25.80
2017-06-14T13:04:28.273Z,25.93